createdAt,value
2023-03-11T00:00:46.934Z,5.93
2023-03-11T00:05:43.383Z,5.89
2023-03-11T00:10:39.268Z,5.85
2023-03-11T00:15:32.728Z,5.82
2023-03-11T00:20:28.744Z,5.76
2023-03-11T00:25:23.998Z,5.72
2023-03-11T00:30:18.600Z,5.73
2023-03-11T00:35:18.088Z,5.70
2023-03-11T00:40:18.763Z,5.63
2023-03-11T00:45:13.128Z,5.60
2023-03-11T00:50:07.873Z,5.58
2023-03-11T00:55:01.068Z,5.53
2023-03-11T00:59:53.984Z,5.51
2023-03-11T01:04:46.816Z,5.49
2023-03-11T01:09:39.906Z,5.42
2023-03-11T01:14:33.992Z,5.34
2023-03-11T01:19:27.241Z,5.29
2023-03-11T01:24:20.367Z,5.20
2023-03-11T01:29:13.150Z,5.14
2023-03-11T01:34:07.448Z,5.09
2023-03-11T01:39:00.266Z,5.04
2023-03-11T01:43:55.748Z,4.98
2023-03-11T01:49:00.139Z,4.94
2023-03-11T01:53:57.272Z,4.89
2023-03-11T01:58:54.433Z,4.86
2023-03-11T02:03:48.131Z,4.80
2023-03-11T02:08:42.872Z,4.76
2023-03-11T02:13:37.648Z,4.69
2023-03-11T02:18:32.802Z,4.61
2023-03-11T02:23:32.201Z,4.51
2023-03-11T02:28:26.920Z,4.45
2023-03-11T02:33:20.612Z,4.37
2023-03-11T02:38:14.532Z,4.29
2023-03-11T02:43:11.759Z,4.26
2023-03-11T02:48:05.449Z,4.22
2023-03-11T02:52:59.056Z,4.19
2023-03-11T02:57:51.883Z,4.13
2023-03-11T03:02:47.001Z,4.04
2023-03-11T03:07:40.348Z,3.95
2023-03-11T03:12:33.487Z,3.88
2023-03-11T03:17:26.753Z,3.79
2023-03-11T03:22:19.654Z,3.70
2023-03-11T03:27:13.032Z,3.63
2023-03-11T03:32:06.921Z,3.56
2023-03-11T03:37:03.435Z,3.49
2023-03-11T03:41:56.329Z,3.38
2023-03-11T03:46:49.731Z,3.27
2023-03-11T03:51:43.278Z,3.22
2023-03-11T03:56:43.009Z,3.17
2023-03-11T04:01:36.110Z,3.13
2023-03-11T04:06:29.591Z,3.05
2023-03-11T04:11:25.960Z,2.99
2023-03-11T04:16:22.615Z,2.94
2023-03-11T04:21:16.638Z,2.96
2023-03-11T04:26:10.420Z,2.96
2023-03-11T04:31:03.850Z,2.94
2023-03-11T04:35:57.518Z,2.96
2023-03-11T04:40:51.142Z,2.98
2023-03-11T04:45:44.170Z,2.99
2023-03-11T04:50:37.893Z,3.02
2023-03-11T04:55:31.229Z,3.10
2023-03-11T05:00:27.188Z,3.16
2023-03-11T05:05:28.249Z,3.20
2023-03-11T05:10:23.531Z,3.27
2023-03-11T05:15:20.704Z,3.34
2023-03-11T05:20:15.856Z,3.45
2023-03-11T05:25:09.701Z,3.56
2023-03-11T05:30:03.285Z,3.63
2023-03-11T05:34:57.525Z,3.72
2023-03-11T05:39:50.543Z,3.79
2023-03-11T05:44:43.658Z,3.88
2023-03-11T05:49:37.807Z,3.96
2023-03-11T05:54:31.118Z,4.04
2023-03-11T05:59:24.122Z,4.13
2023-03-11T06:04:21.691Z,4.23
2023-03-11T06:09:15.806Z,4.33
2023-03-11T06:14:13.491Z,4.44
2023-03-11T06:19:07.037Z,4.57
2023-03-11T06:24:02.911Z,4.70
2023-03-11T06:28:56.539Z,4.82
2023-03-11T06:33:49.803Z,4.97
2023-03-11T06:38:43.316Z,5.16
2023-03-11T06:43:37.632Z,5.38
2023-03-11T06:48:30.892Z,5.59
2023-03-11T06:53:25.737Z,5.81
2023-03-11T06:58:18.680Z,6.03
2023-03-11T07:03:11.635Z,6.31
2023-03-11T07:08:04.626Z,6.50
2023-03-11T07:12:57.546Z,6.64
2023-03-11T07:17:50.702Z,6.77
2023-03-11T07:22:43.948Z,6.82
2023-03-11T07:27:36.877Z,6.82
2023-03-11T07:32:29.937Z,6.82
2023-03-11T07:37:22.849Z,6.85
2023-03-11T07:42:15.663Z,6.89
2023-03-11T07:47:08.574Z,6.96
2023-03-11T07:52:02.182Z,7.05
2023-03-11T07:56:54.988Z,7.13
2023-03-11T08:01:48.276Z,7.17
2023-03-11T08:06:43.612Z,7.21
2023-03-11T08:11:37.630Z,7.24
2023-03-11T08:16:32.223Z,7.23
2023-03-11T08:21:32.264Z,7.22
2023-03-11T08:26:25.259Z,7.27
2023-03-11T08:31:30.656Z,7.34
2023-03-11T08:36:23.610Z,7.34
2023-03-11T08:41:17.450Z,7.31
2023-03-11T08:46:16.483Z,7.32
2023-03-11T08:51:14.339Z,7.29
2023-03-11T08:56:07.717Z,7.24
2023-03-11T09:01:00.887Z,7.22
2023-03-11T09:06:06.124Z,7.19
2023-03-11T09:10:59.114Z,7.12
2023-03-11T09:15:53.018Z,7.08
2023-03-11T09:20:46.986Z,7.02
2023-03-11T09:25:39.793Z,7.00
2023-03-11T09:30:32.875Z,7.00
2023-03-11T09:35:26.245Z,7.04
2023-03-11T09:40:22.295Z,7.02
2023-03-11T09:45:22.896Z,6.98
2023-03-11T09:50:31.559Z,6.94
2023-03-11T09:55:37.471Z,6.92
2023-03-11T10:00:30.640Z,6.87
2023-03-11T10:05:27.825Z,6.81
2023-03-11T10:10:21.176Z,6.75
2023-03-11T10:15:35.982Z,6.72
2023-03-11T10:20:57.901Z,6.57
2023-03-11T10:26:28.791Z,6.31
2023-03-11T10:31:50.386Z,6.03
2023-03-11T10:37:00.364Z,5.81
2023-03-11T10:42:04.342Z,5.57
2023-03-11T10:46:57.507Z,5.30
2023-03-11T10:51:52.788Z,5.10
2023-03-11T10:56:56.524Z,4.92
2023-03-11T11:02:05.111Z,4.74
2023-03-11T11:06:59.537Z,4.55
2023-03-11T11:12:03.673Z,4.44
2023-03-11T11:16:56.490Z,4.32
2023-03-11T11:21:52.605Z,4.15
2023-03-11T11:27:05.772Z,3.99
2023-03-11T11:32:17.184Z,3.77
2023-03-11T11:37:15.448Z,3.55
2023-03-11T11:42:13.441Z,3.41
2023-03-11T11:47:19.228Z,3.35
2023-03-11T11:52:25.392Z,3.25
2023-03-11T11:57:21.966Z,3.17
2023-03-11T12:02:18.360Z,3.13
2023-03-11T12:07:13.913Z,3.08
2023-03-11T12:12:09.459Z,3.05
2023-03-11T12:17:07.557Z,2.96
2023-03-11T12:22:28.584Z,2.92
2023-03-11T12:28:06.451Z,2.81
2023-03-11T12:33:06.595Z,2.76
2023-03-11T12:38:14.490Z,2.74
2023-03-11T12:43:23.697Z,2.68
2023-03-11T12:48:28.455Z,2.66
2023-03-11T12:53:21.835Z,2.64
2023-03-11T12:58:54.377Z,2.52
2023-03-11T13:03:59.077Z,2.36
2023-03-11T13:08:55.950Z,2.25
2023-03-11T13:13:48.735Z,2.17
2023-03-11T13:18:43.444Z,2.10
2023-03-11T13:23:40.598Z,2.04
2023-03-11T13:28:54.471Z,2.02
2023-03-11T13:33:53.797Z,2.07
2023-03-11T13:39:05.724Z,2.03
2023-03-11T13:44:05.384Z,2.02
2023-03-11T13:49:11.458Z,1.99
2023-03-11T13:54:17.838Z,1.96
2023-03-11T13:59:28.571Z,2.00
2023-03-11T14:04:28.168Z,2.00
2023-03-11T14:09:23.841Z,1.91
2023-03-11T14:14:37.409Z,1.81
2023-03-11T14:19:30.245Z,1.83
2023-03-11T14:24:32.667Z,1.84
2023-03-11T14:29:36.585Z,1.74
2023-03-11T14:34:31.763Z,1.62
2023-03-11T14:39:24.524Z,1.44
2023-03-11T14:44:17.904Z,1.28
2023-03-11T14:49:19.860Z,1.20
2023-03-11T14:54:22.754Z,1.20
2023-03-11T14:59:23.268Z,1.16
2023-03-11T15:04:38.474Z,1.14
2023-03-11T15:09:32.904Z,1.18
2023-03-11T15:14:25.694Z,1.19
2023-03-11T15:19:30.487Z,1.18
2023-03-11T15:24:27.894Z,1.17
2023-03-11T15:29:21.486Z,1.18
2023-03-11T15:34:20.308Z,1.18
2023-03-11T15:39:18.656Z,1.17
2023-03-11T15:44:34.285Z,1.16
2023-03-11T15:49:27.451Z,1.14
2023-03-11T15:54:20.256Z,1.09
2023-03-11T15:59:16.355Z,1.05
2023-03-11T16:04:16.525Z,1.04
2023-03-11T16:09:10.358Z,1.03
2023-03-11T16:14:03.572Z,1.04
2023-03-11T16:18:56.376Z,1.04
2023-03-11T16:23:52.221Z,1.01
2023-03-11T16:28:45.369Z,0.97
2023-03-11T16:33:38.382Z,0.95
2023-03-11T16:38:32.445Z,0.93
2023-03-11T16:43:25.521Z,0.91
2023-03-11T16:48:18.324Z,0.89
2023-03-11T16:53:11.290Z,0.89
2023-03-11T16:58:04.611Z,0.87
2023-03-11T17:02:57.825Z,0.84
2023-03-11T17:07:54.769Z,0.85
2023-03-11T17:12:47.732Z,0.85
2023-03-11T17:17:40.513Z,0.84
2023-03-11T17:22:33.446Z,0.81
2023-03-11T17:27:26.281Z,0.77
2023-03-11T17:32:20.171Z,0.76
2023-03-11T17:37:14.352Z,0.76
2023-03-11T17:42:07.592Z,0.72
2023-03-11T17:47:00.717Z,0.70
2023-03-11T17:51:53.975Z,0.70
2023-03-11T17:56:47.246Z,0.71
2023-03-11T18:01:40.403Z,0.69
2023-03-11T18:06:33.172Z,0.67
2023-03-11T18:11:28.670Z,0.66
2023-03-11T18:16:27.985Z,0.65
2023-03-11T18:21:26.282Z,0.64
2023-03-11T18:26:20.011Z,0.59
2023-03-11T18:31:17.720Z,0.54
2023-03-11T18:36:14.605Z,0.52
2023-03-11T18:41:07.537Z,0.52
2023-03-11T18:46:01.969Z,0.50
2023-03-11T18:50:56.650Z,0.44
2023-03-11T18:55:49.877Z,0.34
2023-03-11T19:00:42.649Z,0.26
2023-03-11T19:05:35.448Z,0.19
2023-03-11T19:10:28.251Z,0.13
2023-03-11T19:15:23.165Z,0.07
2023-03-11T19:20:16.132Z,-0.00
2023-03-11T19:25:09.320Z,-0.03
2023-03-11T19:30:02.113Z,-0.05
2023-03-11T19:34:54.909Z,-0.10
2023-03-11T19:39:47.675Z,-0.15
2023-03-11T19:44:40.533Z,-0.22
2023-03-11T19:49:33.597Z,-0.26
2023-03-11T19:54:26.402Z,-0.31
2023-03-11T19:59:19.204Z,-0.35
2023-03-11T20:04:12.716Z,-0.42
2023-03-11T20:09:07.043Z,-0.45
2023-03-11T20:13:59.872Z,-0.48
2023-03-11T20:18:53.242Z,-0.51
2023-03-11T20:23:46.092Z,-0.53
2023-03-11T20:28:39.330Z,-0.56
2023-03-11T20:33:32.458Z,-0.60
2023-03-11T20:38:25.340Z,-0.64
2023-03-11T20:43:19.878Z,-0.67
2023-03-11T20:48:12.705Z,-0.70
2023-03-11T20:53:06.599Z,-0.72
2023-03-11T20:57:59.901Z,-0.76
2023-03-11T21:02:53.101Z,-0.82
2023-03-11T21:07:46.158Z,-0.84
2023-03-11T21:12:39.838Z,-0.88
2023-03-11T21:17:32.936Z,-0.90
2023-03-11T21:22:26.175Z,-0.91
2023-03-11T21:27:20.950Z,-0.90
2023-03-11T21:32:14.005Z,-0.83
2023-03-11T21:37:07.192Z,-0.77
2023-03-11T21:42:00.564Z,-0.76
2023-03-11T21:46:53.556Z,-0.73
2023-03-11T21:51:47.642Z,-0.71
2023-03-11T21:56:40.998Z,-0.70
2023-03-11T22:01:34.795Z,-0.70
2023-03-11T22:06:30.959Z,-0.73
2023-03-11T22:11:24.376Z,-0.75
2023-03-11T22:16:17.255Z,-0.79
2023-03-11T22:21:11.210Z,-0.79
2023-03-11T22:26:04.356Z,-0.80
2023-03-11T22:30:57.230Z,-0.79
2023-03-11T22:35:55.575Z,-0.77
2023-03-11T22:40:48.990Z,-0.74
2023-03-11T22:45:41.828Z,-0.73
2023-03-11T22:50:36.508Z,-0.76
2023-03-11T22:55:29.330Z,-0.81
2023-03-11T23:00:24.603Z,-0.84
2023-03-11T23:05:17.536Z,-0.89
2023-03-11T23:10:13.550Z,-0.91
2023-03-11T23:15:09.805Z,-0.94
2023-03-11T23:20:03.799Z,-0.96
2023-03-11T23:24:56.635Z,-1.00
2023-03-11T23:29:50.715Z,-1.04
2023-03-11T23:34:43.820Z,-1.08
2023-03-11T23:39:36.608Z,-1.13
2023-03-11T23:44:29.413Z,-1.18
2023-03-11T23:49:22.667Z,-1.22
2023-03-11T23:54:15.974Z,-1.27
2023-03-11T23:59:08.808Z,-1.29
